createdAt,value
2018-09-21T00:01:41.855Z,3.87
2018-09-21T00:04:12.508Z,2.70
2018-09-21T00:06:42.203Z,3.13
2018-09-21T00:09:13.038Z,3.27
2018-09-21T00:11:42.669Z,3.30
2018-09-21T00:14:13.561Z,3.37
2018-09-21T00:16:43.285Z,3.17
2018-09-21T00:19:13.040Z,3.23
2018-09-21T00:21:42.602Z,3.53
2018-09-21T00:24:12.213Z,3.40
2018-09-21T00:26:41.931Z,4.87
2018-09-21T00:29:11.620Z,3.40
2018-09-21T00:31:41.410Z,3.60
2018-09-21T00:34:11.355Z,3.40
2018-09-21T00:36:41.075Z,4.10
2018-09-21T00:39:11.451Z,3.50
2018-09-21T00:41:40.934Z,3.60
2018-09-21T00:44:11.242Z,3.87
2018-09-21T00:46:40.912Z,3.23
2018-09-21T00:49:10.558Z,3.47
2018-09-21T00:51:40.194Z,3.27
2018-09-21T00:54:09.751Z,3.73
2018-09-21T00:56:39.424Z,3.17
2018-09-21T00:59:08.892Z,3.23
2018-09-21T01:01:38.487Z,3.57
2018-09-21T01:04:08.165Z,6.67
2018-09-21T01:06:37.661Z,3.33
2018-09-21T01:09:10.169Z,3.23
2018-09-21T01:11:40.158Z,3.33
2018-09-21T01:14:10.578Z,4.00
2018-09-21T01:16:40.221Z,3.73
2018-09-21T01:19:09.973Z,4.37
2018-09-21T01:21:39.633Z,3.07
2018-09-21T01:24:09.309Z,3.17
2018-09-21T01:26:38.856Z,3.67
2018-09-21T01:29:08.486Z,4.00
2018-09-21T01:31:38.016Z,4.03
2018-09-21T01:34:07.789Z,4.57
2018-09-21T01:36:37.349Z,3.53
2018-09-21T01:39:09.281Z,3.90
2018-09-21T01:41:39.011Z,3.60
2018-09-21T01:44:09.453Z,3.60
2018-09-21T01:46:39.396Z,4.40
2018-09-21T01:49:09.174Z,3.07
2018-09-21T01:51:38.837Z,3.67
2018-09-21T01:54:09.245Z,3.60
2018-09-21T01:56:38.797Z,4.73
2018-09-21T01:59:08.433Z,3.60
2018-09-21T02:01:38.531Z,3.00
2018-09-21T02:04:07.750Z,3.47
2018-09-21T02:06:37.389Z,3.13
2018-09-21T02:09:07.985Z,3.57
2018-09-21T02:11:37.021Z,4.63
2018-09-21T02:14:06.289Z,3.90
2018-09-21T02:16:35.305Z,4.60
2018-09-21T02:19:04.610Z,3.40
2018-09-21T02:21:33.683Z,3.83
2018-09-21T02:24:03.031Z,3.23
2018-09-21T02:26:32.613Z,3.80
2018-09-21T02:29:01.897Z,3.73
2018-09-21T02:31:31.272Z,3.93
2018-09-21T02:34:00.795Z,4.00
2018-09-21T02:36:29.976Z,3.63
2018-09-21T02:38:59.482Z,3.43
2018-09-21T02:41:29.088Z,3.03
2018-09-21T02:43:58.273Z,3.63
2018-09-21T02:46:27.759Z,3.87
2018-09-21T02:48:57.254Z,3.80
2018-09-21T02:51:26.764Z,4.23
2018-09-21T02:53:56.279Z,3.57
2018-09-21T02:56:26.152Z,3.97
2018-09-21T02:58:55.410Z,3.60
2018-09-21T03:01:24.606Z,4.50
2018-09-21T03:03:54.280Z,4.30
2018-09-21T03:06:23.488Z,3.60
2018-09-21T03:08:53.092Z,4.20
2018-09-21T03:11:22.903Z,3.60
2018-09-21T03:13:52.257Z,4.60
2018-09-21T03:16:21.840Z,4.67
2018-09-21T03:18:51.167Z,3.73
2018-09-21T03:21:20.690Z,4.43
2018-09-21T03:23:49.880Z,6.23
2018-09-21T03:26:19.261Z,3.70
2018-09-21T03:28:48.917Z,3.67
2018-09-21T03:31:18.596Z,4.03
2018-09-21T03:33:48.201Z,4.37
2018-09-21T03:36:17.848Z,3.73
2018-09-21T03:38:47.387Z,4.10
2018-09-21T03:41:16.810Z,4.87
2018-09-21T03:43:46.542Z,4.10
2018-09-21T03:46:16.124Z,4.03
2018-09-21T03:48:45.774Z,4.17
2018-09-21T03:51:15.462Z,4.40
2018-09-21T03:53:45.015Z,4.03
2018-09-21T03:56:14.496Z,3.90
2018-09-21T03:58:44.141Z,4.13
2018-09-21T04:01:13.871Z,3.60
2018-09-21T04:03:43.470Z,4.33
2018-09-21T04:06:13.088Z,4.73
2018-09-21T04:08:42.578Z,4.93
2018-09-21T04:11:12.369Z,3.77
2018-09-21T04:13:41.948Z,4.77
2018-09-21T04:16:11.600Z,3.93
2018-09-21T04:18:41.376Z,4.00
2018-09-21T04:21:11.328Z,3.57
2018-09-21T04:23:41.164Z,3.73
2018-09-21T04:26:10.767Z,4.70
2018-09-21T04:28:40.478Z,4.23
2018-09-21T04:31:10.007Z,5.57
2018-09-21T04:33:39.509Z,4.17
2018-09-21T04:36:09.224Z,3.93
2018-09-21T04:38:38.935Z,3.87
2018-09-21T04:41:08.423Z,4.13
2018-09-21T04:43:38.004Z,4.30
2018-09-21T04:46:08.511Z,4.10
2018-09-21T04:48:38.330Z,5.10
2018-09-21T04:51:08.077Z,4.03
2018-09-21T04:53:37.760Z,5.30
2018-09-21T04:56:07.418Z,3.63
2018-09-21T04:58:37.058Z,4.53
2018-09-21T05:01:06.663Z,4.27
2018-09-21T05:03:36.241Z,6.03
2018-09-21T05:06:05.684Z,4.40
2018-09-21T05:08:35.022Z,4.67
2018-09-21T05:11:04.673Z,4.07
2018-09-21T05:13:34.041Z,4.07
2018-09-21T05:16:03.803Z,4.00
2018-09-21T05:18:33.560Z,4.00
2018-09-21T05:21:03.156Z,4.23
2018-09-21T05:23:33.082Z,4.83
2018-09-21T05:26:02.708Z,4.93
2018-09-21T05:28:32.696Z,4.77
2018-09-21T05:31:02.982Z,6.23
2018-09-21T05:33:32.432Z,3.83
2018-09-21T05:36:02.130Z,4.13
2018-09-21T05:38:31.740Z,4.63
2018-09-21T05:41:02.115Z,4.37
2018-09-21T05:43:31.775Z,5.17
2018-09-21T05:46:01.497Z,5.10
2018-09-21T05:48:31.066Z,5.07
2018-09-21T05:51:00.726Z,5.43
2018-09-21T05:53:30.255Z,4.23
2018-09-21T05:55:59.956Z,5.57
2018-09-21T05:58:29.393Z,5.40
2018-09-21T06:00:59.153Z,5.27
2018-09-21T06:03:28.815Z,4.70
2018-09-21T06:05:58.554Z,4.93
2018-09-21T06:08:29.617Z,5.27
2018-09-21T06:10:59.066Z,5.00
2018-09-21T06:13:28.804Z,4.83
2018-09-21T06:15:58.491Z,4.90
2018-09-21T06:18:29.278Z,5.00
2018-09-21T06:20:58.840Z,4.50
2018-09-21T06:23:28.393Z,4.97
2018-09-21T06:25:58.101Z,5.23
2018-09-21T06:28:27.824Z,4.60
2018-09-21T06:30:57.657Z,4.73
2018-09-21T06:33:27.392Z,4.97
2018-09-21T06:35:57.132Z,4.80
2018-09-21T06:38:26.658Z,4.67
2018-09-21T06:40:56.181Z,3.80
2018-09-21T06:43:25.771Z,5.10
2018-09-21T06:45:55.349Z,4.67
2018-09-21T06:48:25.006Z,4.83
2018-09-21T06:50:54.554Z,4.03
2018-09-21T06:53:23.984Z,4.60
2018-09-21T06:55:53.576Z,3.97
2018-09-21T06:58:22.900Z,4.33
2018-09-21T07:00:52.700Z,5.33
2018-09-21T07:03:22.385Z,5.17
2018-09-21T07:05:51.991Z,4.37
2018-09-21T07:08:21.691Z,4.87
2018-09-21T07:10:51.172Z,5.47
2018-09-21T07:13:20.922Z,5.07
2018-09-21T07:15:50.329Z,3.83
2018-09-21T07:18:20.246Z,4.10
2018-09-21T07:20:49.922Z,3.70
2018-09-21T07:23:19.687Z,4.03
2018-09-21T07:25:49.437Z,3.60
2018-09-21T07:28:19.613Z,3.47
2018-09-21T07:30:49.845Z,3.80
2018-09-21T07:33:19.584Z,3.40
2018-09-21T07:35:49.122Z,4.10
2018-09-21T07:38:18.730Z,4.20
2018-09-21T07:40:49.972Z,3.30
2018-09-21T07:43:19.588Z,3.87
2018-09-21T07:45:49.350Z,4.27
2018-09-21T07:48:18.959Z,3.87
2018-09-21T07:50:48.817Z,3.33
2018-09-21T07:53:18.628Z,3.17
2018-09-21T07:55:48.214Z,4.17
2018-09-21T07:58:17.697Z,3.80
2018-09-21T08:00:47.464Z,3.20
2018-09-21T08:03:17.600Z,3.97
2018-09-21T08:05:47.266Z,3.70
2018-09-21T08:08:16.826Z,3.47
2018-09-21T08:10:46.770Z,3.20
2018-09-21T08:13:16.418Z,5.07
2018-09-21T08:15:45.960Z,3.37
2018-09-21T08:18:15.528Z,3.40
2018-09-21T08:20:45.145Z,4.13
2018-09-21T08:23:14.915Z,3.60
2018-09-21T08:25:45.136Z,3.73
2018-09-21T08:28:14.549Z,3.57
2018-09-21T08:30:44.272Z,3.73
2018-09-21T08:33:14.018Z,2.97
2018-09-21T08:35:44.203Z,3.00
2018-09-21T08:38:13.782Z,3.10
2018-09-21T08:40:43.819Z,4.03
2018-09-21T08:45:32.390Z,2.87
2018-09-21T08:48:02.068Z,4.80
2018-09-21T08:50:31.926Z,2.80
2018-09-21T08:53:01.470Z,3.80
2018-09-21T08:55:31.223Z,2.97
2018-09-21T08:58:01.033Z,3.47
2018-09-21T09:00:30.696Z,3.17
2018-09-21T09:03:00.930Z,3.03
2018-09-21T09:05:30.616Z,3.33
2018-09-21T09:08:00.233Z,3.17
2018-09-21T09:10:29.621Z,2.73
2018-09-21T09:12:59.286Z,3.00
2018-09-21T09:15:28.766Z,3.03
2018-09-21T09:17:58.251Z,2.70
2018-09-21T09:20:27.863Z,2.70
2018-09-21T09:22:57.390Z,2.90
2018-09-21T09:25:27.340Z,2.80
2018-09-21T09:27:56.933Z,2.60
2018-09-21T09:30:26.546Z,2.83
2018-09-21T09:32:56.085Z,3.00
2018-09-21T09:35:25.706Z,2.87
2018-09-21T09:37:55.291Z,2.90
2018-09-21T09:40:25.455Z,2.93
2018-09-21T09:42:55.220Z,3.00
2018-09-21T09:45:25.008Z,3.23
2018-09-21T09:47:54.556Z,3.17
2018-09-21T09:50:24.147Z,2.37
2018-09-21T09:52:53.877Z,2.90
2018-09-21T09:55:23.555Z,3.10
2018-09-21T09:57:53.108Z,3.47
2018-09-21T10:00:28.336Z,2.50
2018-09-21T10:02:57.820Z,2.60
2018-09-21T10:05:27.406Z,2.53
2018-09-21T10:07:56.970Z,2.33
2018-09-21T10:10:26.471Z,2.17
2018-09-21T10:12:56.037Z,2.27
2018-09-21T10:15:25.525Z,2.33
2018-09-21T10:17:55.177Z,2.20
2018-09-21T10:20:24.662Z,2.17
2018-09-21T10:22:54.237Z,2.00
2018-09-21T10:25:24.254Z,2.30
2018-09-21T10:27:54.051Z,3.03
2018-09-21T10:30:23.544Z,2.17
2018-09-21T10:32:53.048Z,2.57
2018-09-21T10:35:22.658Z,2.60
2018-09-21T10:37:52.155Z,2.63
2018-09-21T10:40:22.766Z,2.03
2018-09-21T10:42:52.355Z,2.23
2018-09-21T10:45:21.937Z,1.70
2018-09-21T10:47:51.856Z,3.40
2018-09-21T10:50:21.376Z,2.20
2018-09-21T10:52:51.196Z,3.20
2018-09-21T10:55:22.171Z,2.37
2018-09-21T10:57:52.142Z,2.20
2018-09-21T11:00:21.701Z,2.87
2018-09-21T11:02:51.476Z,2.77
2018-09-21T11:05:21.980Z,2.00
2018-09-21T11:07:51.478Z,2.80
2018-09-21T11:10:20.825Z,2.10
2018-09-21T11:12:50.243Z,2.00
2018-09-21T11:15:19.675Z,2.17
2018-09-21T11:17:49.144Z,2.73
2018-09-21T11:20:18.555Z,1.63
2018-09-21T11:22:48.514Z,2.30
2018-09-21T11:25:21.783Z,2.13
2018-09-21T11:27:51.271Z,3.17
2018-09-21T11:30:20.844Z,2.80
2018-09-21T11:32:50.281Z,3.27
2018-09-21T11:35:19.758Z,2.30
2018-09-21T11:37:57.728Z,2.10
2018-09-21T11:40:41.794Z,2.60
2018-09-21T11:43:11.498Z,3.20
2018-09-21T11:45:41.510Z,2.50
2018-09-21T11:48:10.994Z,2.60
2018-09-21T11:50:40.674Z,2.47
2018-09-21T11:53:10.419Z,2.37
2018-09-21T11:55:40.214Z,2.83
2018-09-21T11:58:10.497Z,2.13
2018-09-21T12:00:40.339Z,2.03
2018-09-21T12:03:09.739Z,2.13
2018-09-21T12:05:39.468Z,1.63
2018-09-21T12:08:08.980Z,1.57
2018-09-21T12:10:38.450Z,2.10
2018-09-21T12:13:07.748Z,0.73
2018-09-21T12:15:37.174Z,3.80
2018-09-21T12:18:06.378Z,2.27
2018-09-21T12:20:35.679Z,2.40
2018-09-21T12:23:04.826Z,1.33
2018-09-21T12:25:34.537Z,1.60
2018-09-21T12:28:03.971Z,2.17
2018-09-21T12:30:33.401Z,2.10
2018-09-21T12:33:02.981Z,2.40
2018-09-21T12:35:32.524Z,1.60
2018-09-21T12:38:02.075Z,2.60
2018-09-21T12:40:31.506Z,3.47
2018-09-21T12:43:01.185Z,1.67
2018-09-21T12:45:30.849Z,2.13
2018-09-21T12:48:00.592Z,1.43
2018-09-21T12:50:30.299Z,1.47
2018-09-21T12:52:59.743Z,3.87
2018-09-21T12:55:29.243Z,1.60
2018-09-21T12:57:59.157Z,1.70
2018-09-21T13:00:32.774Z,1.60
2018-09-21T13:03:03.217Z,2.93
2018-09-21T13:05:32.953Z,1.83
2018-09-21T13:08:02.659Z,1.70
2018-09-21T13:10:32.158Z,1.90
2018-09-21T13:13:01.867Z,1.67
2018-09-21T13:15:31.516Z,1.97
2018-09-21T13:18:01.160Z,1.57
2018-09-21T13:20:32.548Z,1.70
2018-09-21T13:23:02.546Z,2.27
2018-09-21T13:25:32.018Z,2.83
2018-09-21T13:28:02.218Z,2.17
2018-09-21T13:30:31.733Z,2.60
2018-09-21T13:33:01.263Z,2.93
2018-09-21T13:35:30.746Z,0.70
2018-09-21T13:38:00.775Z,3.47
2018-09-21T13:40:30.809Z,2.20
2018-09-21T13:43:00.083Z,1.80
2018-09-21T13:45:29.602Z,1.33
2018-09-21T13:47:59.282Z,1.80
2018-09-21T13:50:28.894Z,2.57
2018-09-21T13:52:58.332Z,2.07
2018-09-21T13:55:28.029Z,1.57
2018-09-21T13:57:57.444Z,2.17
2018-09-21T14:00:27.228Z,4.57
2018-09-21T14:02:57.091Z,4.40
2018-09-21T14:05:26.733Z,2.37
2018-09-21T14:07:56.211Z,2.50
2018-09-21T14:10:25.717Z,2.00
2018-09-21T14:12:55.464Z,2.60
2018-09-21T14:15:25.081Z,2.53
2018-09-21T14:17:54.610Z,2.73
2018-09-21T14:20:24.468Z,2.47
2018-09-21T14:22:53.926Z,2.77
2018-09-21T14:25:23.609Z,2.53
2018-09-21T14:27:52.966Z,3.63
2018-09-21T14:30:22.563Z,2.97
2018-09-21T14:32:52.017Z,2.03
2018-09-21T14:35:21.572Z,2.30
2018-09-21T14:37:51.029Z,2.80
2018-09-21T14:40:20.568Z,3.10
2018-09-21T14:42:50.090Z,3.33
2018-09-21T14:45:19.452Z,2.90
2018-09-21T14:47:48.890Z,3.60
2018-09-21T14:50:18.552Z,2.70
2018-09-21T14:52:48.166Z,2.77
2018-09-21T14:55:17.866Z,3.03
2018-09-21T14:57:47.231Z,4.30
2018-09-21T15:00:17.403Z,2.90
2018-09-21T15:02:46.872Z,2.87
2018-09-21T15:05:16.455Z,3.63
2018-09-21T15:08:14.720Z,3.00
2018-09-21T15:11:08.308Z,3.00
2018-09-21T15:13:37.773Z,3.80
2018-09-21T15:16:07.631Z,3.10
2018-09-21T15:19:07.910Z,2.57
2018-09-21T15:21:38.251Z,2.00
2018-09-21T15:24:07.844Z,1.30
2018-09-21T15:26:37.787Z,1.57
2018-09-21T15:29:07.711Z,2.33
2018-09-21T15:31:37.593Z,2.87
2018-09-21T15:34:08.003Z,3.00
2018-09-21T15:36:37.744Z,5.50
2018-09-21T15:39:10.019Z,3.17
2018-09-21T15:41:39.916Z,3.20
2018-09-21T15:44:09.508Z,3.63
2018-09-21T15:46:39.233Z,3.40
2018-09-21T15:49:08.886Z,2.90
2018-09-21T15:51:38.545Z,4.27
2018-09-21T15:54:08.163Z,3.50
2018-09-21T15:56:37.439Z,4.13
2018-09-21T15:59:06.918Z,4.67
2018-09-21T16:01:36.095Z,3.30
2018-09-21T16:04:05.417Z,3.03
2018-09-21T16:06:35.136Z,3.50
2018-09-21T16:09:07.064Z,4.33
2018-09-21T16:11:36.931Z,5.23
2018-09-21T16:14:06.805Z,4.17
2018-09-21T16:16:36.866Z,5.00
2018-09-21T16:19:06.316Z,5.77
2018-09-21T16:21:35.739Z,3.80
2018-09-21T16:24:05.013Z,4.10
2018-09-21T16:26:34.371Z,3.70
2018-09-21T16:29:04.146Z,3.40
2018-09-21T16:31:33.853Z,3.63
2018-09-21T16:34:03.243Z,1.03
2018-09-21T16:36:33.518Z,1.40
2018-09-21T16:39:03.123Z,0.93
2018-09-21T16:41:32.700Z,0.40
2018-09-21T16:44:02.260Z,0.40
2018-09-21T16:46:31.877Z,0.40
2018-09-21T16:49:01.426Z,0.30
2018-09-21T16:51:30.832Z,0.87
2018-09-21T16:54:00.604Z,0.40
2018-09-21T16:56:30.489Z,0.40
2018-09-21T16:59:00.247Z,0.30
2018-09-21T17:01:29.833Z,0.37
2018-09-21T17:03:59.711Z,0.50
2018-09-21T17:06:29.314Z,0.30
2018-09-21T17:08:58.968Z,0.30
2018-09-21T17:11:28.897Z,0.40
2018-09-21T17:13:58.377Z,0.27
2018-09-21T17:16:27.966Z,0.43
2018-09-21T17:18:57.669Z,0.30
2018-09-21T17:21:27.419Z,0.30
2018-09-21T17:23:57.059Z,0.40
2018-09-21T17:26:26.515Z,0.30
2018-09-21T17:28:55.906Z,0.73
2018-09-21T17:31:25.411Z,0.37
2018-09-21T17:33:54.966Z,0.50
2018-09-21T17:36:24.513Z,0.30
2018-09-21T17:38:54.089Z,1.50
2018-09-21T17:41:23.519Z,0.63
2018-09-21T17:43:53.253Z,0.50
2018-09-21T17:46:23.193Z,0.43
2018-09-21T17:48:53.010Z,0.57
2018-09-21T17:51:22.718Z,0.50
2018-09-21T17:53:52.227Z,0.40
2018-09-21T17:56:21.679Z,0.53
2018-09-21T17:58:51.487Z,0.50
2018-09-21T18:01:21.051Z,0.53
2018-09-21T18:03:50.677Z,0.50
2018-09-21T18:06:20.729Z,0.50
2018-09-21T18:08:50.238Z,0.40
2018-09-21T18:11:20.195Z,0.83
2018-09-21T18:13:49.971Z,0.53
2018-09-21T18:16:21.118Z,0.40
2018-09-21T18:18:51.076Z,1.27
2018-09-21T18:21:21.699Z,0.47
2018-09-21T18:23:51.632Z,1.07
2018-09-21T18:26:21.345Z,0.40
2018-09-21T18:28:51.010Z,0.50
2018-09-21T18:31:20.864Z,2.60
2018-09-21T18:33:50.885Z,0.50
2018-09-21T18:36:20.464Z,0.60
2018-09-21T18:38:49.948Z,0.67
2018-09-21T18:41:19.264Z,0.70
2018-09-21T18:43:49.055Z,0.40
2018-09-21T18:46:18.996Z,0.40
2018-09-21T18:48:48.491Z,0.40
2018-09-21T18:51:18.187Z,0.50
2018-09-21T18:53:48.115Z,0.40
2018-09-21T18:56:17.779Z,0.63
2018-09-21T18:58:50.093Z,0.30
2018-09-21T19:01:19.686Z,0.57
2018-09-21T19:03:49.258Z,0.40
2018-09-21T19:06:18.886Z,0.60
2018-09-21T19:08:48.910Z,0.43
2018-09-21T19:11:18.728Z,0.50
2018-09-21T19:13:48.620Z,0.67
2018-09-21T19:16:18.329Z,0.40
2018-09-21T19:18:47.870Z,0.43
2018-09-21T19:21:17.605Z,0.57
2018-09-21T19:23:47.566Z,0.40
2018-09-21T19:26:17.388Z,2.63
2018-09-21T19:28:47.131Z,0.53
2018-09-21T19:31:16.819Z,0.73
2018-09-21T19:33:46.435Z,1.03
2018-09-21T19:36:15.979Z,0.53
2018-09-21T19:38:45.615Z,0.60
2018-09-21T19:41:16.620Z,0.67
2018-09-21T19:43:52.791Z,0.60
2018-09-21T19:46:22.833Z,0.50
2018-09-21T19:48:52.479Z,2.53
2018-09-21T19:51:22.208Z,0.83
2018-09-21T19:53:51.695Z,0.60
2018-09-21T19:56:21.222Z,0.60
2018-09-21T19:58:50.930Z,0.40
2018-09-21T20:01:20.923Z,1.87
2018-09-21T20:03:50.634Z,0.40
2018-09-21T20:06:21.653Z,3.70
2018-09-21T20:08:51.167Z,0.97
2018-09-21T20:11:20.883Z,0.60
2018-09-21T20:16:41.130Z,0.73
2018-09-21T20:19:10.721Z,0.50
2018-09-21T20:21:40.674Z,2.93
2018-09-21T20:24:10.478Z,0.50
2018-09-21T20:26:40.019Z,2.53
2018-09-21T20:29:14.262Z,2.07
2018-09-21T20:31:48.876Z,0.50
2018-09-21T20:34:19.784Z,2.07
2018-09-21T20:36:54.846Z,0.80
2018-09-21T20:39:24.897Z,0.53
2018-09-21T20:41:56.692Z,0.60
2018-09-21T20:44:26.276Z,0.80
2018-09-21T20:46:55.876Z,0.60
2018-09-21T20:49:25.167Z,1.03
2018-09-21T20:51:56.719Z,0.80
2018-09-21T20:54:26.414Z,1.50
2018-09-21T20:56:55.853Z,1.60
2018-09-21T20:59:25.621Z,0.70
2018-09-21T21:01:55.156Z,0.60
2018-09-21T21:04:24.908Z,2.63
2018-09-21T21:06:54.904Z,0.50
2018-09-21T21:10:09.305Z,0.90
2018-09-21T21:12:38.896Z,0.77
2018-09-21T21:15:08.685Z,2.13
2018-09-21T21:17:38.162Z,0.90
2018-09-21T21:20:07.687Z,0.40
2018-09-21T21:22:37.369Z,0.90
2018-09-21T21:25:07.043Z,0.93
2018-09-21T21:27:36.785Z,1.90
2018-09-21T21:30:06.398Z,0.70
2018-09-21T21:32:35.836Z,0.90
2018-09-21T21:35:11.040Z,1.10
2018-09-21T21:37:40.782Z,1.17
2018-09-21T21:40:10.505Z,1.10
2018-09-21T21:42:42.848Z,1.37
2018-09-21T21:45:12.424Z,2.73
2018-09-21T21:47:41.955Z,1.60
2018-09-21T21:50:11.576Z,2.47
2018-09-21T21:52:41.182Z,2.53
2018-09-21T21:55:10.883Z,1.90
2018-09-21T21:57:42.544Z,2.27
2018-09-21T22:00:12.313Z,2.00
2018-09-21T22:02:41.810Z,2.23
2018-09-21T22:05:11.459Z,0.93
2018-09-21T22:07:41.452Z,2.17
2018-09-21T22:12:53.914Z,1.57
2018-09-21T22:15:25.046Z,2.47
2018-09-21T22:17:57.100Z,2.37
2018-09-21T22:20:35.972Z,2.07
2018-09-21T22:23:05.485Z,1.60
2018-09-21T22:25:35.317Z,1.87
2018-09-21T22:28:05.013Z,2.37
2018-09-21T22:30:34.505Z,2.23
2018-09-21T22:33:04.347Z,1.70
2018-09-21T22:35:33.768Z,2.33
2018-09-21T22:38:03.103Z,1.53
2018-09-21T22:40:32.547Z,1.53
2018-09-21T22:43:02.202Z,1.43
2018-09-21T22:45:31.737Z,2.17
2018-09-21T22:48:01.365Z,1.67
2018-09-21T22:50:31.537Z,1.80
2018-09-21T22:53:01.459Z,1.50
2018-09-21T22:55:31.103Z,2.43
2018-09-21T22:58:00.581Z,3.40
2018-09-21T23:00:30.088Z,1.93
2018-09-21T23:02:59.437Z,2.57
2018-09-21T23:05:28.878Z,3.70
2018-09-21T23:07:58.347Z,2.30
2018-09-21T23:10:27.824Z,2.30
2018-09-21T23:12:57.252Z,1.47
2018-09-21T23:15:26.643Z,1.47
2018-09-21T23:17:56.232Z,2.77
2018-09-21T23:20:26.272Z,4.23
2018-09-21T23:22:55.709Z,2.00
2018-09-21T23:25:25.150Z,0.90
2018-09-21T23:27:54.626Z,1.30
2018-09-21T23:30:24.086Z,1.77
2018-09-21T23:32:53.822Z,2.40
2018-09-21T23:35:23.413Z,1.60
2018-09-21T23:37:52.829Z,1.37
2018-09-21T23:40:22.412Z,1.87
2018-09-21T23:42:52.040Z,1.20
2018-09-21T23:45:21.559Z,1.00
2018-09-21T23:47:50.988Z,1.83
2018-09-21T23:50:20.571Z,1.67
2018-09-21T23:52:50.264Z,2.77
2018-09-21T23:55:19.687Z,5.20
2018-09-21T23:57:49.254Z,0.70
